Columbus, GA

8:19 AM EDT on October 31, 2014 (GMT -0400)
RoseParadiseFarm Hwy 36 | Change Station
CLOSE
Current Station
Personal Weather Station
Location: Waverly Hall, GA
Elevation: 804 ft
Nearby Weather Stations

Elev 804 ft 32.70 °N, 84.70 °W | Updated 2 seconds ago

Clear
Clear
43.2 °F
Feels Like 43 °F
N
0.0
Wind Variable Wind from North
Gusts 1.0 mph

Today
High -- | Low -- °F
--% Chance of Precip.
Yesterday
High -- | Low -- °F
Precip. -- in
7:55 AM 6:49 PM
First Quarter, 54% visible
Pressure 29.96 in
Visibility 10.0 miles
Clouds Clear
Windchill 43 °F
Dew Point 41 °F
Humidity 91%
Rainfall 0.00 in
Snow Depth Not available.
UV 0 out of 12
Pollen 2.20 out of 12
Air Quality Not available.
Flu Activity Not available.
METAR KCSG 311151Z AUTO 33006KT 10SM CLR 08/04 A2996 RMK AO2 SLP143 T00780044 10100 20078 53006

More Conditions Fewer Conditions

Pressure 29.96 in
Visibility 10.0 miles
Clouds Clear
Windchill 43 °F
Dew Point 41 °F
Humidity 91%
Rainfall 0.00 in
Snow Depth Not available.
UV 0 out of 12
Pollen 2.20 out of 12
Air Quality Not available.
Flu Activity Not available.
METAR KCSG 311151Z AUTO 33006KT 10SM CLR 08/04 A2996 RMK AO2 SLP143 T00780044 10100 20078 53006

More Conditions Fewer Conditions

10-Day Weather Forecast

Almanac

Astronomy

Oct. 31, 2014 Rise Set
Actual Time
Civil Twilight
Nautical Twilight
Astronomical Twilight
Moon
Length of Visible Light
Length of Day
Tomorrow will be .
, % of the Moon is Illuminated

Today's Extremes

State Highs State Lows

Community

WunderPhotos

Upload Photos

1,766,589 photos uploaded!

WunderBlogs® & News

Nearby

Air Quality

  Air Quality AQ Index Pollutant
Not available.

Snow Depth

Station Depth Elevation

Earthquake Activity

City Distance Mag. Time & Date
Minimum magnitude displayed is 2.5.

Coastal Water Temperatures

Place Temperature

Nearby Weather Stations